Overview Statistics Trail Chart Weather Telemetry Raw packets
 

This is the latest recevied weather packets stored in our database for station/object TB1YZC-13. If no packets are shown the sender has not sent any weather packets the latest 10 day(s).

<< 9 10 11 12 13 14 15 >>
Time Temp. Humidity Pressure Rain* Wind** Luminosity Snow
1788511675 26.67° C 56% 1017.7 hPa - - - -
1788511071 26.67° C 57% 1017.7 hPa - - - -
1788510468 26.11° C 59% 1017.7 hPa - - - -
1788509865 25.56° C 62% 1017.9 hPa - - - -
1788509262 25.56° C 63% 1017.9 hPa - - - -
1788508658 26.11° C 62% 1017.9 hPa - - - -
1788508055 26.11° C 62% 1017.8 hPa - - - -
1788507452 25.56° C 63% 1017.8 hPa - - - -
1788506849 25.56° C 62% 1017.7 hPa - - - -
1788506246 25° C 62% 1017.7 hPa - - - -
1788505642 25° C 64% 1017.8 hPa - - - -
1788505039 24.44° C 66% 1017.8 hPa - - - -
1788504437 23.89° C 70% 1017.7 hPa - - - -
1788503833 25° C 69% 1017.6 hPa - - - -
1788503230 24.44° C 74% 1017.5 hPa - - - -
1788502627 23.89° C 77% 1017.3 hPa - - - -
1788502024 23.89° C 79% 1017.3 hPa - - - -
1788501420 23.33° C 83% 1017.3 hPa - - - -
1788500817 22.78° C 84% 1017.2 hPa - - - -
1788500214 23.33° C 85% 1017.1 hPa - - - -
1788499611 22.78° C 91% 1017.2 hPa - - - -
1788499008 22.22° C 94% 1017.4 hPa - - - -
1788498405 21.67° C 95% 1017.5 hPa - - - -
1788497802 21.11° C 96% 1017.5 hPa - - - -
1788497199 21.11° C 97% 1017.5 hPa - - - -

* Rain since midnight (hover to see other rain measurements)
** Current wind speed in m/s (hover to see current wind gust speed)